sensor_id;sensor_type;location;lat;lon;timestamp;P1;durP1;ratioP1;P2;durP2;ratioP2
23360;SDS011;11852;50.082;18.554;2023-04-03T00:00:38;6.0;;;4.0;;
23360;SDS011;11852;50.082;18.554;2023-04-03T00:01:45;6.0;;;3.0;;
23360;SDS011;11852;50.082;18.554;2023-04-03T00:02:52;7.0;;;4.0;;
23360;SDS011;11852;50.082;18.554;2023-04-03T00:03:58;7.0;;;4.0;;
23360;SDS011;11852;50.082;18.554;2023-04-03T00:05:05;5.0;;;3.0;;
23360;SDS011;11852;50.082;18.554;2023-04-03T00:06:12;7.0;;;4.0;;
23360;SDS011;11852;50.082;18.554;2023-04-03T00:07:19;7.0;;;4.0;;
23360;SDS011;11852;50.082;18.554;2023-04-03T00:08:26;6.0;;;4.0;;
23360;SDS011;11852;50.082;18.554;2023-04-03T00:09:32;6.0;;;3.0;;
23360;SDS011;11852;50.082;18.554;2023-04-03T00:10:39;7.0;;;4.0;;
23360;SDS011;11852;50.082;18.554;2023-04-03T00:11:46;7.0;;;4.0;;
23360;SDS011;11852;50.082;18.554;2023-04-03T00:12:53;7.0;;;4.0;;
23360;SDS011;11852;50.082;18.554;2023-04-03T00:14:00;7.0;;;4.0;;
23360;SDS011;11852;50.082;18.554;2023-04-03T00:15:06;7.0;;;4.0;;
23360;SDS011;11852;50.082;18.554;2023-04-03T00:16:13;8.0;;;5.0;;
23360;SDS011;11852;50.082;18.554;2023-04-03T00:17:20;7.0;;;5.0;;
23360;SDS011;11852;50.082;18.554;2023-04-03T00:18:27;7.0;;;5.0;;
23360;SDS011;11852;50.082;18.554;2023-04-03T00:19:34;7.0;;;5.0;;
23360;SDS011;11852;50.082;18.554;2023-04-03T00:20:41;7.0;;;4.0;;
23360;SDS011;11852;50.082;18.554;2023-04-03T00:21:47;8.0;;;5.0;;
23360;SDS011;11852;50.082;18.554;2023-04-03T00:22:54;7.0;;;4.0;;
23360;SDS011;11852;50.082;18.554;2023-04-03T00:24:01;8.0;;;5.0;;
23360;SDS011;11852;50.082;18.554;2023-04-03T00:25:08;8.0;;;5.0;;
23360;SDS011;11852;50.082;18.554;2023-04-03T00:26:15;8.0;;;4.0;;
23360;SDS011;11852;50.082;18.554;2023-04-03T00:27:21;8.0;;;5.0;;
23360;SDS011;11852;50.082;18.554;2023-04-03T00:28:28;8.0;;;5.0;;
23360;SDS011;11852;50.082;18.554;2023-04-03T00:29:35;7.0;;;5.0;;
23360;SDS011;11852;50.082;18.554;2023-04-03T00:30:42;8.0;;;4.0;;
23360;SDS011;11852;50.082;18.554;2023-04-03T00:31:49;8.0;;;5.0;;
23360;SDS011;11852;50.082;18.554;2023-04-03T00:32:56;9.0;;;6.0;;
23360;SDS011;11852;50.082;18.554;2023-04-03T00:34:02;8.0;;;5.0;;
23360;SDS011;11852;50.082;18.554;2023-04-03T00:35:09;9.0;;;6.0;;
23360;SDS011;11852;50.082;18.554;2023-04-03T00:36:16;8.0;;;5.0;;
23360;SDS011;11852;50.082;18.554;2023-04-03T00:37:23;9.0;;;6.0;;
23360;SDS011;11852;50.082;18.554;2023-04-03T00:38:29;9.0;;;5.0;;
23360;SDS011;11852;50.082;18.554;2023-04-03T00:39:36;8.0;;;5.0;;
23360;SDS011;11852;50.082;18.554;2023-04-03T00:40:44;8.0;;;6.0;;
23360;SDS011;11852;50.082;18.554;2023-04-03T00:41:50;9.0;;;5.0;;
23360;SDS011;11852;50.082;18.554;2023-04-03T00:42:58;9.0;;;6.0;;
23360;SDS011;11852;50.082;18.554;2023-04-03T00:45:25;10.0;;;7.0;;
23360;SDS011;11852;50.082;18.554;2023-04-03T00:46:33;9.0;;;6.0;;
23360;SDS011;11852;50.082;18.554;2023-04-03T00:47:40;10.0;;;7.0;;
23360;SDS011;11852;50.082;18.554;2023-04-03T00:48:47;10.0;;;6.0;;
23360;SDS011;11852;50.082;18.554;2023-04-03T00:49:53;10.0;;;6.0;;
23360;SDS011;11852;50.082;18.554;2023-04-03T00:51:00;9.0;;;6.0;;
23360;SDS011;11852;50.082;18.554;2023-04-03T00:52:08;10.0;;;6.0;;
23360;SDS011;11852;50.082;18.554;2023-04-03T00:53:16;9.0;;;6.0;;
23360;SDS011;11852;50.082;18.554;2023-04-03T00:54:21;10.0;;;6.0;;
23360;SDS011;11852;50.082;18.554;2023-04-03T00:55:27;9.0;;;6.0;;
23360;SDS011;11852;50.082;18.554;2023-04-03T00:56:34;10.0;;;6.0;;
23360;SDS011;11852;50.082;18.554;2023-04-03T00:57:41;9.0;;;6.0;;
23360;SDS011;11852;50.082;18.554;2023-04-03T01:00:06;9.0;;;6.0;;
23360;SDS011;11852;50.082;18.554;2023-04-03T01:01:12;10.0;;;6.0;;
23360;SDS011;11852;50.082;18.554;2023-04-03T01:02:19;10.0;;;5.0;;
23360;SDS011;11852;50.082;18.554;2023-04-03T01:03:25;9.0;;;6.0;;
23360;SDS011;11852;50.082;18.554;2023-04-03T01:04:34;9.0;;;6.0;;
23360;SDS011;11852;50.082;18.554;2023-04-03T01:05:39;10.0;;;6.0;;
23360;SDS011;11852;50.082;18.554;2023-04-03T01:06:46;11.0;;;6.0;;
23360;SDS011;11852;50.082;18.554;2023-04-03T01:07:52;9.0;;;6.0;;
23360;SDS011;11852;50.082;18.554;2023-04-03T01:08:59;9.0;;;6.0;;
23360;SDS011;11852;50.082;18.554;2023-04-03T01:10:07;9.0;;;5.0;;
23360;SDS011;11852;50.082;18.554;2023-04-03T01:11:13;9.0;;;6.0;;
23360;SDS011;11852;50.082;18.554;2023-04-03T01:12:22;8.0;;;5.0;;
23360;SDS011;11852;50.082;18.554;2023-04-03T01:13:28;9.0;;;5.0;;
23360;SDS011;11852;50.082;18.554;2023-04-03T01:14:34;8.0;;;5.0;;
23360;SDS011;11852;50.082;18.554;2023-04-03T01:15:40;9.0;;;5.0;;
23360;SDS011;11852;50.082;18.554;2023-04-03T01:17:59;9.0;;;5.0;;
23360;SDS011;11852;50.082;18.554;2023-04-03T01:19:07;8.0;;;5.0;;
23360;SDS011;11852;50.082;18.554;2023-04-03T01:22:45;9.0;;;5.0;;
23360;SDS011;11852;50.082;18.554;2023-04-03T01:25:01;9.0;;;5.0;;
23360;SDS011;11852;50.082;18.554;2023-04-03T01:26:07;8.0;;;4.0;;
23360;SDS011;11852;50.082;18.554;2023-04-03T01:27:14;9.0;;;5.0;;
23360;SDS011;11852;50.082;18.554;2023-04-03T01:29:33;8.0;;;5.0;;
23360;SDS011;11852;50.082;18.554;2023-04-03T01:30:44;8.0;;;5.0;;
23360;SDS011;11852;50.082;18.554;2023-04-03T01:31:50;7.0;;;4.0;;
23360;SDS011;11852;50.082;18.554;2023-04-03T01:32:56;10.0;;;5.0;;
23360;SDS011;11852;50.082;18.554;2023-04-03T01:34:03;8.0;;;4.0;;
23360;SDS011;11852;50.082;18.554;2023-04-03T01:35:10;8.0;;;4.0;;
23360;SDS011;11852;50.082;18.554;2023-04-03T01:36:18;8.0;;;4.0;;
23360;SDS011;11852;50.082;18.554;2023-04-03T01:37:23;9.0;;;4.0;;
23360;SDS011;11852;50.082;18.554;2023-04-03T01:38:30;8.0;;;5.0;;
23360;SDS011;11852;50.082;18.554;2023-04-03T01:39:37;8.0;;;4.0;;
23360;SDS011;11852;50.082;18.554;2023-04-03T01:40:44;8.0;;;4.0;;
23360;SDS011;11852;50.082;18.554;2023-04-03T01:41:50;9.0;;;4.0;;
23360;SDS011;11852;50.082;18.554;2023-04-03T01:42:57;9.0;;;5.0;;
23360;SDS011;11852;50.082;18.554;2023-04-03T01:44:04;9.0;;;4.0;;
23360;SDS011;11852;50.082;18.554;2023-04-03T01:45:11;8.0;;;4.0;;
23360;SDS011;11852;50.082;18.554;2023-04-03T01:46:18;7.0;;;4.0;;
23360;SDS011;11852;50.082;18.554;2023-04-03T01:47:24;8.0;;;5.0;;
23360;SDS011;11852;50.082;18.554;2023-04-03T01:48:31;10.0;;;5.0;;
23360;SDS011;11852;50.082;18.554;2023-04-03T01:49:38;9.0;;;5.0;;
23360;SDS011;11852;50.082;18.554;2023-04-03T01:50:45;9.0;;;5.0;;
23360;SDS011;11852;50.082;18.554;2023-04-03T01:51:52;9.0;;;4.0;;
23360;SDS011;11852;50.082;18.554;2023-04-03T01:52:58;8.0;;;4.0;;
23360;SDS011;11852;50.082;18.554;2023-04-03T01:54:05;8.0;;;5.0;;
23360;SDS011;11852;50.082;18.554;2023-04-03T01:55:12;8.0;;;4.0;;
23360;SDS011;11852;50.082;18.554;2023-04-03T01:56:19;9.0;;;5.0;;
23360;SDS011;11852;50.082;18.554;2023-04-03T01:57:26;8.0;;;4.0;;
23360;SDS011;11852;50.082;18.554;2023-04-03T01:58:33;7.0;;;4.0;;
23360;SDS011;11852;50.082;18.554;2023-04-03T01:59:39;8.0;;;4.0;;
23360;SDS011;11852;50.082;18.554;2023-04-03T02:00:46;9.0;;;5.0;;
23360;SDS011;11852;50.082;18.554;2023-04-03T02:01:53;8.0;;;4.0;;
23360;SDS011;11852;50.082;18.554;2023-04-03T02:03:00;8.0;;;3.0;;
23360;SDS011;11852;50.082;18.554;2023-04-03T02:04:07;9.0;;;4.0;;
23360;SDS011;11852;50.082;18.554;2023-04-03T02:05:13;8.0;;;4.0;;
23360;SDS011;11852;50.082;18.554;2023-04-03T02:06:20;8.0;;;4.0;;
23360;SDS011;11852;50.082;18.554;2023-04-03T02:07:27;8.0;;;4.0;;
23360;SDS011;11852;50.082;18.554;2023-04-03T02:08:34;8.0;;;4.0;;
23360;SDS011;11852;50.082;18.554;2023-04-03T02:09:41;8.0;;;4.0;;
23360;SDS011;11852;50.082;18.554;2023-04-03T02:10:48;10.0;;;5.0;;
23360;SDS011;11852;50.082;18.554;2023-04-03T02:11:54;8.0;;;4.0;;
23360;SDS011;11852;50.082;18.554;2023-04-03T02:13:01;7.0;;;4.0;;
23360;SDS011;11852;50.082;18.554;2023-04-03T02:14:08;8.0;;;4.0;;
23360;SDS011;11852;50.082;18.554;2023-04-03T02:15:15;7.0;;;4.0;;
23360;SDS011;11852;50.082;18.554;2023-04-03T02:16:21;8.0;;;4.0;;
23360;SDS011;11852;50.082;18.554;2023-04-03T02:17:28;8.0;;;4.0;;
23360;SDS011;11852;50.082;18.554;2023-04-03T02:18:35;8.0;;;4.0;;
23360;SDS011;11852;50.082;18.554;2023-04-03T02:19:42;7.0;;;3.0;;
23360;SDS011;11852;50.082;18.554;2023-04-03T02:20:49;9.0;;;4.0;;
23360;SDS011;11852;50.082;18.554;2023-04-03T02:21:56;8.0;;;4.0;;
23360;SDS011;11852;50.082;18.554;2023-04-03T02:23:03;8.0;;;3.0;;
23360;SDS011;11852;50.082;18.554;2023-04-03T02:24:09;8.0;;;4.0;;
23360;SDS011;11852;50.082;18.554;2023-04-03T02:25:16;9.0;;;4.0;;
23360;SDS011;11852;50.082;18.554;2023-04-03T02:26:23;8.0;;;4.0;;
23360;SDS011;11852;50.082;18.554;2023-04-03T02:27:30;8.0;;;4.0;;
23360;SDS011;11852;50.082;18.554;2023-04-03T02:28:36;7.0;;;3.0;;
23360;SDS011;11852;50.082;18.554;2023-04-03T02:29:43;8.0;;;3.0;;
23360;SDS011;11852;50.082;18.554;2023-04-03T02:30:50;9.0;;;4.0;;
23360;SDS011;11852;50.082;18.554;2023-04-03T02:31:57;8.0;;;3.0;;
23360;SDS011;11852;50.082;18.554;2023-04-03T02:33:04;10.0;;;4.0;;
23360;SDS011;11852;50.082;18.554;2023-04-03T02:34:11;9.0;;;3.0;;
23360;SDS011;11852;50.082;18.554;2023-04-03T02:35:17;7.0;;;3.0;;
23360;SDS011;11852;50.082;18.554;2023-04-03T02:36:24;7.0;;;3.0;;
23360;SDS011;11852;50.082;18.554;2023-04-03T02:37:31;8.0;;;3.0;;
23360;SDS011;11852;50.082;18.554;2023-04-03T02:38:38;8.0;;;3.0;;
23360;SDS011;11852;50.082;18.554;2023-04-03T02:39:45;8.0;;;3.0;;
23360;SDS011;11852;50.082;18.554;2023-04-03T02:40:52;9.0;;;3.0;;
23360;SDS011;11852;50.082;18.554;2023-04-03T02:41:58;7.0;;;3.0;;
23360;SDS011;11852;50.082;18.554;2023-04-03T02:43:05;8.0;;;3.0;;
23360;SDS011;11852;50.082;18.554;2023-04-03T02:44:12;7.0;;;3.0;;
23360;SDS011;11852;50.082;18.554;2023-04-03T02:45:19;8.0;;;4.0;;
23360;SDS011;11852;50.082;18.554;2023-04-03T02:46:26;9.0;;;4.0;;
23360;SDS011;11852;50.082;18.554;2023-04-03T02:47:32;8.0;;;3.0;;
23360;SDS011;11852;50.082;18.554;2023-04-03T02:48:39;8.0;;;3.0;;
23360;SDS011;11852;50.082;18.554;2023-04-03T02:49:46;8.0;;;3.0;;
23360;SDS011;11852;50.082;18.554;2023-04-03T02:50:53;8.0;;;3.0;;
23360;SDS011;11852;50.082;18.554;2023-04-03T02:52:00;8.0;;;3.0;;
23360;SDS011;11852;50.082;18.554;2023-04-03T02:53:06;7.0;;;3.0;;
23360;SDS011;11852;50.082;18.554;2023-04-03T02:54:13;8.0;;;3.0;;
23360;SDS011;11852;50.082;18.554;2023-04-03T02:55:20;8.0;;;3.0;;
23360;SDS011;11852;50.082;18.554;2023-04-03T02:56:27;9.0;;;4.0;;
23360;SDS011;11852;50.082;18.554;2023-04-03T02:57:34;9.0;;;3.0;;
23360;SDS011;11852;50.082;18.554;2023-04-03T02:58:41;8.0;;;3.0;;
23360;SDS011;11852;50.082;18.554;2023-04-03T02:59:47;8.0;;;3.0;;
23360;SDS011;11852;50.082;18.554;2023-04-03T03:00:54;8.0;;;3.0;;
23360;SDS011;11852;50.082;18.554;2023-04-03T03:02:01;9.0;;;3.0;;
23360;SDS011;11852;50.082;18.554;2023-04-03T03:03:08;7.0;;;3.0;;
23360;SDS011;11852;50.082;18.554;2023-04-03T03:04:15;8.0;;;3.0;;
23360;SDS011;11852;50.082;18.554;2023-04-03T03:05:21;8.0;;;3.0;;
23360;SDS011;11852;50.082;18.554;2023-04-03T03:06:28;9.0;;;3.0;;
23360;SDS011;11852;50.082;18.554;2023-04-03T03:07:35;9.0;;;3.0;;
23360;SDS011;11852;50.082;18.554;2023-04-03T03:08:42;8.0;;;3.0;;
23360;SDS011;11852;50.082;18.554;2023-04-03T03:09:49;7.0;;;3.0;;
23360;SDS011;11852;50.082;18.554;2023-04-03T03:10:55;9.0;;;3.0;;
23360;SDS011;11852;50.082;18.554;2023-04-03T03:12:02;7.0;;;4.0;;
23360;SDS011;11852;50.082;18.554;2023-04-03T03:13:09;7.0;;;3.0;;
23360;SDS011;11852;50.082;18.554;2023-04-03T03:14:16;7.0;;;3.0;;
23360;SDS011;11852;50.082;18.554;2023-04-03T03:15:23;9.0;;;3.0;;
23360;SDS011;11852;50.082;18.554;2023-04-03T03:16:30;7.0;;;3.0;;
23360;SDS011;11852;50.082;18.554;2023-04-03T03:17:36;8.0;;;3.0;;
23360;SDS011;11852;50.082;18.554;2023-04-03T03:18:43;7.0;;;3.0;;
23360;SDS011;11852;50.082;18.554;2023-04-03T03:19:50;8.0;;;3.0;;
23360;SDS011;11852;50.082;18.554;2023-04-03T03:20:57;7.0;;;3.0;;
23360;SDS011;11852;50.082;18.554;2023-04-03T03:22:03;8.0;;;3.0;;
23360;SDS011;11852;50.082;18.554;2023-04-03T03:23:10;8.0;;;3.0;;
23360;SDS011;11852;50.082;18.554;2023-04-03T03:24:17;9.0;;;3.0;;
23360;SDS011;11852;50.082;18.554;2023-04-03T03:25:24;8.0;;;3.0;;
23360;SDS011;11852;50.082;18.554;2023-04-03T03:26:31;6.0;;;3.0;;
23360;SDS011;11852;50.082;18.554;2023-04-03T03:27:37;8.0;;;3.0;;
23360;SDS011;11852;50.082;18.554;2023-04-03T03:28:44;7.0;;;3.0;;
23360;SDS011;11852;50.082;18.554;2023-04-03T03:29:51;15.0;;;8.0;;
23360;SDS011;11852;50.082;18.554;2023-04-03T03:30:58;12.0;;;6.0;;
23360;SDS011;11852;50.082;18.554;2023-04-03T03:32:05;10.0;;;5.0;;
23360;SDS011;11852;50.082;18.554;2023-04-03T03:33:12;9.0;;;4.0;;
23360;SDS011;11852;50.082;18.554;2023-04-03T03:34:19;9.0;;;4.0;;
23360;SDS011;11852;50.082;18.554;2023-04-03T03:35:25;9.0;;;4.0;;
23360;SDS011;11852;50.082;18.554;2023-04-03T03:36:32;9.0;;;4.0;;
23360;SDS011;11852;50.082;18.554;2023-04-03T03:37:39;9.0;;;4.0;;
23360;SDS011;11852;50.082;18.554;2023-04-03T03:38:46;8.0;;;4.0;;
23360;SDS011;11852;50.082;18.554;2023-04-03T03:39:53;10.0;;;4.0;;
23360;SDS011;11852;50.082;18.554;2023-04-03T03:40:59;8.0;;;4.0;;
23360;SDS011;11852;50.082;18.554;2023-04-03T03:42:06;8.0;;;3.0;;
23360;SDS011;11852;50.082;18.554;2023-04-03T03:43:13;9.0;;;3.0;;
23360;SDS011;11852;50.082;18.554;2023-04-03T03:44:20;9.0;;;4.0;;
23360;SDS011;11852;50.082;18.554;2023-04-03T03:45:26;9.0;;;4.0;;
23360;SDS011;11852;50.082;18.554;2023-04-03T03:46:33;8.0;;;3.0;;
23360;SDS011;11852;50.082;18.554;2023-04-03T03:47:40;9.0;;;4.0;;
23360;SDS011;11852;50.082;18.554;2023-04-03T03:48:47;9.0;;;4.0;;
23360;SDS011;11852;50.082;18.554;2023-04-03T03:49:54;8.0;;;3.0;;
23360;SDS011;11852;50.082;18.554;2023-04-03T03:51:00;8.0;;;4.0;;
23360;SDS011;11852;50.082;18.554;2023-04-03T03:52:07;11.0;;;4.0;;
23360;SDS011;11852;50.082;18.554;2023-04-03T03:53:14;11.0;;;4.0;;
23360;SDS011;11852;50.082;18.554;2023-04-03T03:54:21;10.0;;;4.0;;
23360;SDS011;11852;50.082;18.554;2023-04-03T03:55:28;9.0;;;4.0;;
23360;SDS011;11852;50.082;18.554;2023-04-03T03:56:34;9.0;;;4.0;;
23360;SDS011;11852;50.082;18.554;2023-04-03T03:57:41;9.0;;;4.0;;
23360;SDS011;11852;50.082;18.554;2023-04-03T03:58:48;8.0;;;3.0;;
23360;SDS011;11852;50.082;18.554;2023-04-03T03:59:55;8.0;;;3.0;;
23360;SDS011;11852;50.082;18.554;2023-04-03T04:01:02;9.0;;;4.0;;
23360;SDS011;11852;50.082;18.554;2023-04-03T04:02:08;9.0;;;4.0;;
23360;SDS011;11852;50.082;18.554;2023-04-03T04:03:15;8.0;;;3.0;;
23360;SDS011;11852;50.082;18.554;2023-04-03T04:04:22;8.0;;;3.0;;
23360;SDS011;11852;50.082;18.554;2023-04-03T04:05:29;10.0;;;4.0;;
23360;SDS011;11852;50.082;18.554;2023-04-03T04:06:36;9.0;;;4.0;;
23360;SDS011;11852;50.082;18.554;2023-04-03T04:07:42;9.0;;;3.0;;
23360;SDS011;11852;50.082;18.554;2023-04-03T04:08:49;10.0;;;4.0;;
23360;SDS011;11852;50.082;18.554;2023-04-03T04:09:56;9.0;;;4.0;;
23360;SDS011;11852;50.082;18.554;2023-04-03T04:11:03;8.0;;;4.0;;
23360;SDS011;11852;50.082;18.554;2023-04-03T04:12:10;10.0;;;3.0;;
23360;SDS011;11852;50.082;18.554;2023-04-03T04:13:16;9.0;;;3.0;;
23360;SDS011;11852;50.082;18.554;2023-04-03T04:14:23;10.0;;;4.0;;
23360;SDS011;11852;50.082;18.554;2023-04-03T04:15:30;8.0;;;4.0;;
23360;SDS011;11852;50.082;18.554;2023-04-03T04:16:37;9.0;;;3.0;;
23360;SDS011;11852;50.082;18.554;2023-04-03T04:17:44;9.0;;;4.0;;
23360;SDS011;11852;50.082;18.554;2023-04-03T04:18:53;8.0;;;3.0;;
23360;SDS011;11852;50.082;18.554;2023-04-03T04:20:01;9.0;;;3.0;;
23360;SDS011;11852;50.082;18.554;2023-04-03T04:21:07;9.0;;;4.0;;
23360;SDS011;11852;50.082;18.554;2023-04-03T04:22:14;8.0;;;3.0;;
23360;SDS011;11852;50.082;18.554;2023-04-03T04:23:20;8.0;;;3.0;;
23360;SDS011;11852;50.082;18.554;2023-04-03T04:24:27;7.0;;;3.0;;
23360;SDS011;11852;50.082;18.554;2023-04-03T04:25:34;8.0;;;3.0;;
23360;SDS011;11852;50.082;18.554;2023-04-03T04:26:41;8.0;;;4.0;;
23360;SDS011;11852;50.082;18.554;2023-04-03T04:27:48;10.0;;;4.0;;
23360;SDS011;11852;50.082;18.554;2023-04-03T04:28:54;9.0;;;4.0;;
23360;SDS011;11852;50.082;18.554;2023-04-03T04:30:01;11.0;;;4.0;;
23360;SDS011;11852;50.082;18.554;2023-04-03T04:31:08;10.0;;;4.0;;
23360;SDS011;11852;50.082;18.554;2023-04-03T04:32:15;11.0;;;4.0;;
23360;SDS011;11852;50.082;18.554;2023-04-03T04:33:22;10.0;;;4.0;;
23360;SDS011;11852;50.082;18.554;2023-04-03T04:34:28;9.0;;;4.0;;
23360;SDS011;11852;50.082;18.554;2023-04-03T04:35:35;9.0;;;3.0;;
23360;SDS011;11852;50.082;18.554;2023-04-03T04:36:42;9.0;;;4.0;;
23360;SDS011;11852;50.082;18.554;2023-04-03T04:37:49;8.0;;;3.0;;
23360;SDS011;11852;50.082;18.554;2023-04-03T04:38:55;9.0;;;4.0;;
23360;SDS011;11852;50.082;18.554;2023-04-03T04:40:02;10.0;;;4.0;;
23360;SDS011;11852;50.082;18.554;2023-04-03T04:41:09;8.0;;;3.0;;
23360;SDS011;11852;50.082;18.554;2023-04-03T04:42:16;7.0;;;3.0;;
23360;SDS011;11852;50.082;18.554;2023-04-03T04:43:23;8.0;;;3.0;;
23360;SDS011;11852;50.082;18.554;2023-04-03T04:44:30;9.0;;;4.0;;
23360;SDS011;11852;50.082;18.554;2023-04-03T04:45:36;8.0;;;3.0;;
23360;SDS011;11852;50.082;18.554;2023-04-03T04:46:43;8.0;;;3.0;;
23360;SDS011;11852;50.082;18.554;2023-04-03T04:47:50;9.0;;;3.0;;
23360;SDS011;11852;50.082;18.554;2023-04-03T04:48:57;9.0;;;4.0;;
23360;SDS011;11852;50.082;18.554;2023-04-03T04:50:04;9.0;;;4.0;;
23360;SDS011;11852;50.082;18.554;2023-04-03T04:51:11;9.0;;;4.0;;
23360;SDS011;11852;50.082;18.554;2023-04-03T04:52:17;10.0;;;4.0;;
23360;SDS011;11852;50.082;18.554;2023-04-03T04:53:24;10.0;;;4.0;;
23360;SDS011;11852;50.082;18.554;2023-04-03T04:54:31;10.0;;;4.0;;
23360;SDS011;11852;50.082;18.554;2023-04-03T04:55:38;10.0;;;4.0;;
23360;SDS011;11852;50.082;18.554;2023-04-03T04:56:45;10.0;;;4.0;;
23360;SDS011;11852;50.082;18.554;2023-04-03T04:57:51;13.0;;;4.0;;
23360;SDS011;11852;50.082;18.554;2023-04-03T04:58:58;17.0;;;7.0;;
23360;SDS011;11852;50.082;18.554;2023-04-03T05:00:05;16.0;;;7.0;;
23360;SDS011;11852;50.082;18.554;2023-04-03T05:01:12;13.0;;;5.0;;
23360;SDS011;11852;50.082;18.554;2023-04-03T05:02:19;9.0;;;3.0;;
23360;SDS011;11852;50.082;18.554;2023-04-03T05:03:26;13.0;;;5.0;;
23360;SDS011;11852;50.082;18.554;2023-04-03T05:04:33;12.0;;;5.0;;
23360;SDS011;11852;50.082;18.554;2023-04-03T05:05:39;13.0;;;5.0;;
23360;SDS011;11852;50.082;18.554;2023-04-03T05:06:46;14.0;;;5.0;;
23360;SDS011;11852;50.082;18.554;2023-04-03T05:07:53;14.0;;;5.0;;
23360;SDS011;11852;50.082;18.554;2023-04-03T05:09:00;17.0;;;6.0;;
23360;SDS011;11852;50.082;18.554;2023-04-03T05:10:07;15.0;;;5.0;;
23360;SDS011;11852;50.082;18.554;2023-04-03T05:11:14;16.0;;;5.0;;
23360;SDS011;11852;50.082;18.554;2023-04-03T05:12:21;12.0;;;5.0;;
23360;SDS011;11852;50.082;18.554;2023-04-03T05:13:28;16.0;;;6.0;;
23360;SDS011;11852;50.082;18.554;2023-04-03T05:14:34;25.0;;;7.0;;
23360;SDS011;11852;50.082;18.554;2023-04-03T05:15:41;17.0;;;6.0;;
23360;SDS011;11852;50.082;18.554;2023-04-03T05:16:48;15.0;;;5.0;;
23360;SDS011;11852;50.082;18.554;2023-04-03T05:17:55;24.0;;;7.0;;
23360;SDS011;11852;50.082;18.554;2023-04-03T05:19:02;25.0;;;8.0;;
23360;SDS011;11852;50.082;18.554;2023-04-03T05:20:08;19.0;;;6.0;;
23360;SDS011;11852;50.082;18.554;2023-04-03T05:21:15;11.0;;;4.0;;
23360;SDS011;11852;50.082;18.554;2023-04-03T05:22:22;13.0;;;5.0;;
23360;SDS011;11852;50.082;18.554;2023-04-03T05:23:29;14.0;;;5.0;;
23360;SDS011;11852;50.082;18.554;2023-04-03T05:24:36;14.0;;;5.0;;
23360;SDS011;11852;50.082;18.554;2023-04-03T05:25:43;16.0;;;6.0;;
23360;SDS011;11852;50.082;18.554;2023-04-03T05:26:49;21.0;;;6.0;;
23360;SDS011;11852;50.082;18.554;2023-04-03T05:27:56;19.0;;;7.0;;
23360;SDS011;11852;50.082;18.554;2023-04-03T05:29:03;23.0;;;7.0;;
23360;SDS011;11852;50.082;18.554;2023-04-03T05:30:10;18.0;;;6.0;;
23360;SDS011;11852;50.082;18.554;2023-04-03T05:31:17;14.0;;;5.0;;
23360;SDS011;11852;50.082;18.554;2023-04-03T05:32:24;14.0;;;5.0;;
23360;SDS011;11852;50.082;18.554;2023-04-03T05:33:30;12.0;;;4.0;;
23360;SDS011;11852;50.082;18.554;2023-04-03T05:34:37;18.0;;;6.0;;
23360;SDS011;11852;50.082;18.554;2023-04-03T05:35:44;14.0;;;5.0;;
23360;SDS011;11852;50.082;18.554;2023-04-03T05:36:51;15.0;;;5.0;;
23360;SDS011;11852;50.082;18.554;2023-04-03T05:37:58;16.0;;;5.0;;
23360;SDS011;11852;50.082;18.554;2023-04-03T05:39:04;10.0;;;4.0;;
23360;SDS011;11852;50.082;18.554;2023-04-03T05:40:11;11.0;;;4.0;;
23360;SDS011;11852;50.082;18.554;2023-04-03T05:41:18;13.0;;;5.0;;
23360;SDS011;11852;50.082;18.554;2023-04-03T05:42:25;15.0;;;6.0;;
23360;SDS011;11852;50.082;18.554;2023-04-03T05:43:32;14.0;;;5.0;;
23360;SDS011;11852;50.082;18.554;2023-04-03T05:44:38;13.0;;;5.0;;
23360;SDS011;11852;50.082;18.554;2023-04-03T05:45:46;14.0;;;6.0;;
23360;SDS011;11852;50.082;18.554;2023-04-03T05:46:52;15.0;;;6.0;;
23360;SDS011;11852;50.082;18.554;2023-04-03T05:47:59;13.0;;;5.0;;
23360;SDS011;11852;50.082;18.554;2023-04-03T05:49:06;12.0;;;5.0;;
23360;SDS011;11852;50.082;18.554;2023-04-03T05:50:12;14.0;;;5.0;;
23360;SDS011;11852;50.082;18.554;2023-04-03T05:51:23;13.0;;;5.0;;
23360;SDS011;11852;50.082;18.554;2023-04-03T05:52:30;13.0;;;5.0;;
23360;SDS011;11852;50.082;18.554;2023-04-03T05:53:38;12.0;;;5.0;;
23360;SDS011;11852;50.082;18.554;2023-04-03T05:54:45;12.0;;;5.0;;
23360;SDS011;11852;50.082;18.554;2023-04-03T05:55:52;9.0;;;4.0;;
23360;SDS011;11852;50.082;18.554;2023-04-03T05:56:59;9.0;;;4.0;;
23360;SDS011;11852;50.082;18.554;2023-04-03T05:58:06;14.0;;;4.0;;
23360;SDS011;11852;50.082;18.554;2023-04-03T05:59:12;8.0;;;3.0;;
23360;SDS011;11852;50.082;18.554;2023-04-03T06:00:19;9.0;;;3.0;;
23360;SDS011;11852;50.082;18.554;2023-04-03T06:01:26;8.0;;;3.0;;
23360;SDS011;11852;50.082;18.554;2023-04-03T06:02:33;11.0;;;4.0;;
23360;SDS011;11852;50.082;18.554;2023-04-03T06:03:40;11.0;;;4.0;;
23360;SDS011;11852;50.082;18.554;2023-04-03T06:04:46;9.0;;;4.0;;
23360;SDS011;11852;50.082;18.554;2023-04-03T06:05:53;8.0;;;3.0;;
23360;SDS011;11852;50.082;18.554;2023-04-03T06:07:02;10.0;;;4.0;;
23360;SDS011;11852;50.082;18.554;2023-04-03T06:08:08;9.0;;;3.0;;
23360;SDS011;11852;50.082;18.554;2023-04-03T06:09:15;8.0;;;3.0;;
23360;SDS011;11852;50.082;18.554;2023-04-03T06:10:22;8.0;;;3.0;;
23360;SDS011;11852;50.082;18.554;2023-04-03T06:11:29;8.0;;;3.0;;
23360;SDS011;11852;50.082;18.554;2023-04-03T06:12:36;9.0;;;3.0;;
23360;SDS011;11852;50.082;18.554;2023-04-03T06:13:43;8.0;;;3.0;;
23360;SDS011;11852;50.082;18.554;2023-04-03T06:14:49;10.0;;;3.0;;
23360;SDS011;11852;50.082;18.554;2023-04-03T06:15:56;8.0;;;3.0;;
23360;SDS011;11852;50.082;18.554;2023-04-03T06:17:03;8.0;;;3.0;;
23360;SDS011;11852;50.082;18.554;2023-04-03T06:18:10;8.0;;;3.0;;
23360;SDS011;11852;50.082;18.554;2023-04-03T06:19:17;7.0;;;3.0;;
23360;SDS011;11852;50.082;18.554;2023-04-03T06:20:23;8.0;;;3.0;;
23360;SDS011;11852;50.082;18.554;2023-04-03T06:21:30;9.0;;;3.0;;
23360;SDS011;11852;50.082;18.554;2023-04-03T06:22:37;8.0;;;3.0;;
23360;SDS011;11852;50.082;18.554;2023-04-03T06:23:44;12.0;;;3.0;;
23360;SDS011;11852;50.082;18.554;2023-04-03T06:24:50;8.0;;;3.0;;
23360;SDS011;11852;50.082;18.554;2023-04-03T06:25:57;7.0;;;3.0;;
23360;SDS011;11852;50.082;18.554;2023-04-03T06:27:04;8.0;;;3.0;;
23360;SDS011;11852;50.082;18.554;2023-04-03T06:28:11;9.0;;;3.0;;
23360;SDS011;11852;50.082;18.554;2023-04-03T06:29:18;8.0;;;3.0;;
23360;SDS011;11852;50.082;18.554;2023-04-03T06:30:27;9.0;;;3.0;;
23360;SDS011;11852;50.082;18.554;2023-04-03T06:31:34;8.0;;;3.0;;
23360;SDS011;11852;50.082;18.554;2023-04-03T06:32:41;9.0;;;3.0;;
23360;SDS011;11852;50.082;18.554;2023-04-03T06:33:48;9.0;;;3.0;;
23360;SDS011;11852;50.082;18.554;2023-04-03T06:34:55;9.0;;;3.0;;
23360;SDS011;11852;50.082;18.554;2023-04-03T06:36:03;7.0;;;3.0;;
23360;SDS011;11852;50.082;18.554;2023-04-03T06:38:23;11.0;;;4.0;;
23360;SDS011;11852;50.082;18.554;2023-04-03T06:39:30;10.0;;;3.0;;
23360;SDS011;11852;50.082;18.554;2023-04-03T06:40:42;9.0;;;3.0;;
23360;SDS011;11852;50.082;18.554;2023-04-03T06:41:50;8.0;;;3.0;;
23360;SDS011;11852;50.082;18.554;2023-04-03T06:42:57;10.0;;;3.0;;
23360;SDS011;11852;50.082;18.554;2023-04-03T06:44:04;11.0;;;4.0;;
23360;SDS011;11852;50.082;18.554;2023-04-03T06:45:11;10.0;;;3.0;;
23360;SDS011;11852;50.082;18.554;2023-04-03T06:46:19;9.0;;;4.0;;
23360;SDS011;11852;50.082;18.554;2023-04-03T06:47:24;9.0;;;3.0;;
23360;SDS011;11852;50.082;18.554;2023-04-03T06:48:31;9.0;;;3.0;;
23360;SDS011;11852;50.082;18.554;2023-04-03T06:49:38;10.0;;;4.0;;
23360;SDS011;11852;50.082;18.554;2023-04-03T06:50:45;8.0;;;3.0;;
23360;SDS011;11852;50.082;18.554;2023-04-03T06:51:52;9.0;;;3.0;;
23360;SDS011;11852;50.082;18.554;2023-04-03T06:52:59;9.0;;;3.0;;
23360;SDS011;11852;50.082;18.554;2023-04-03T06:54:06;9.0;;;3.0;;
23360;SDS011;11852;50.082;18.554;2023-04-03T06:55:13;8.0;;;3.0;;
23360;SDS011;11852;50.082;18.554;2023-04-03T06:56:21;7.0;;;3.0;;
23360;SDS011;11852;50.082;18.554;2023-04-03T06:57:27;8.0;;;3.0;;